createdAt,value
2022-12-22T00:02:46.080Z,-0.27
2022-12-22T00:05:34.834Z,-0.27
2022-12-22T00:08:21.157Z,-0.29
2022-12-22T00:11:07.459Z,-0.31
2022-12-22T00:13:53.610Z,-0.42
2022-12-22T00:16:39.453Z,-0.22
2022-12-22T00:19:32.576Z,-0.22
2022-12-22T00:22:32.476Z,-0.35
2022-12-22T00:25:18.334Z,-0.31
2022-12-22T00:28:03.987Z,-0.27
2022-12-22T00:30:49.725Z,-0.48
2022-12-22T00:33:38.597Z,-0.21
2022-12-22T00:36:27.003Z,-0.31
2022-12-22T00:39:12.611Z,-0.23
2022-12-22T00:41:58.399Z,-0.24
2022-12-22T00:44:44.052Z,-0.41
2022-12-22T00:47:36.830Z,-0.23
2022-12-22T00:50:22.796Z,-0.44
2022-12-22T00:53:08.388Z,-0.31
2022-12-22T00:55:54.099Z,-0.32
2022-12-22T00:58:39.912Z,-0.35
2022-12-22T01:01:26.071Z,-0.49
2022-12-22T01:04:11.737Z,-0.36
2022-12-22T01:06:57.906Z,-0.42
2022-12-22T01:09:43.804Z,-0.29
2022-12-22T01:12:37.391Z,-0.18
2022-12-22T01:15:35.596Z,-0.25
2022-12-22T01:18:21.827Z,-0.32
2022-12-22T01:21:08.210Z,-0.31
2022-12-22T01:23:54.281Z,-0.16
2022-12-22T01:26:40.335Z,-0.21
2022-12-22T01:29:26.536Z,-0.23
2022-12-22T01:32:12.184Z,-0.47
2022-12-22T01:34:58.195Z,-0.32
2022-12-22T01:37:43.832Z,-0.13
2022-12-22T01:40:38.647Z,-0.33
2022-12-22T01:43:51.910Z,-0.10
2022-12-22T01:46:46.298Z,-0.10
2022-12-22T01:49:53.910Z,-0.14
2022-12-22T01:52:44.099Z,-0.06
2022-12-22T01:55:34.126Z,-0.13
2022-12-22T01:58:19.748Z,-0.24
2022-12-22T02:01:06.133Z,-0.07
2022-12-22T02:03:52.442Z,-0.30
2022-12-22T02:06:59.939Z,-0.04
2022-12-22T02:09:53.165Z,-0.03
2022-12-22T02:12:54.371Z,-0.02
2022-12-22T02:16:14.965Z,-0.06
2022-12-22T02:19:32.941Z,-0.01
2022-12-22T02:22:45.216Z,-0.01
2022-12-22T02:25:49.705Z,-0.14
2022-12-22T02:28:35.377Z,-0.05
2022-12-22T02:31:21.048Z,-0.06
2022-12-22T02:34:06.607Z,-0.09
2022-12-22T02:36:58.166Z,0.01
2022-12-22T02:40:06.861Z,-0.05
2022-12-22T02:43:31.781Z,-0.10
2022-12-22T02:46:42.078Z,0.04
2022-12-22T02:49:28.352Z,0.08
2022-12-22T02:52:21.589Z,0.08
2022-12-22T02:55:07.324Z,-0.02
2022-12-22T02:57:53.453Z,0.02
2022-12-22T03:00:38.857Z,-0.03
2022-12-22T03:03:25.448Z,0.09
2022-12-22T03:06:11.217Z,-0.13
2022-12-22T03:08:56.816Z,0.07
2022-12-22T03:11:42.463Z,0.09
2022-12-22T03:14:28.189Z,0.04
2022-12-22T03:17:14.485Z,0.03
2022-12-22T03:20:00.234Z,0.11
2022-12-22T03:22:45.772Z,0.05
2022-12-22T03:25:31.574Z,-0.11
2022-12-22T03:28:03.673Z,-0.11
2022-12-22T03:30:30.833Z,0.10
2022-12-22T03:32:58.327Z,-0.11
2022-12-22T03:35:25.906Z,0.12
2022-12-22T03:37:53.167Z,0.07
2022-12-22T03:40:20.324Z,-0.14
2022-12-22T03:43:05.889Z,-0.09
2022-12-22T03:45:51.687Z,-0.03
2022-12-22T03:48:18.966Z,0.07
2022-12-22T03:50:46.184Z,-0.07
2022-12-22T03:53:13.572Z,-0.03
2022-12-22T03:55:40.682Z,-0.09
2022-12-22T03:58:07.702Z,0.10
2022-12-22T04:00:34.914Z,-0.10
2022-12-22T04:03:02.160Z,0.01
2022-12-22T04:05:29.376Z,0.11
2022-12-22T04:07:56.382Z,0.10
2022-12-22T04:10:41.991Z,-0.20
2022-12-22T04:13:09.176Z,0.01
2022-12-22T04:15:36.133Z,0.08
2022-12-22T04:18:03.497Z,0.04
2022-12-22T04:20:30.881Z,-0.20
2022-12-22T04:22:58.607Z,-0.06
2022-12-22T04:25:27.247Z,0.10
2022-12-22T04:27:54.394Z,0.10
2022-12-22T04:30:21.663Z,-0.12
2022-12-22T04:32:48.651Z,0.11
2022-12-22T04:35:15.889Z,0.02
2022-12-22T04:37:43.019Z,0.10
2022-12-22T04:40:10.119Z,0.10
2022-12-22T04:42:37.268Z,-0.15
2022-12-22T04:45:04.900Z,0.08
2022-12-22T04:47:32.205Z,-0.19
2022-12-22T04:49:59.937Z,-0.13
2022-12-22T04:52:27.230Z,-0.04
2022-12-22T04:54:54.177Z,0.10
2022-12-22T04:57:21.644Z,0.05
2022-12-22T04:59:48.949Z,-0.10
2022-12-22T05:02:16.124Z,-0.12
2022-12-22T05:04:43.486Z,0.06
2022-12-22T05:07:10.642Z,0.12
2022-12-22T05:09:37.666Z,0.11
2022-12-22T05:12:27.978Z,0.09
2022-12-22T05:14:55.082Z,0.10
2022-12-22T05:17:22.084Z,0.10
2022-12-22T05:19:49.271Z,0.03
2022-12-22T05:22:16.244Z,0.10
2022-12-22T05:24:43.481Z,-0.01
2022-12-22T05:27:13.419Z,0.01
2022-12-22T05:29:40.640Z,0.05
2022-12-22T05:32:07.572Z,0.14
2022-12-22T05:34:34.635Z,0.11
2022-12-22T05:37:01.659Z,0.14
2022-12-22T05:39:28.708Z,-0.04
2022-12-22T05:41:55.949Z,0.07
2022-12-22T05:44:22.878Z,0.15
2022-12-22T05:46:53.365Z,0.14
2022-12-22T05:49:20.818Z,0.10
2022-12-22T05:51:48.295Z,-0.11
2022-12-22T05:54:15.461Z,0.08
2022-12-22T05:56:42.371Z,0.12
2022-12-22T05:59:10.935Z,0.11
2022-12-22T06:01:38.577Z,-0.03
2022-12-22T06:04:05.918Z,0.13
2022-12-22T06:06:33.104Z,-0.02
2022-12-22T06:09:00.104Z,0.12
2022-12-22T06:11:27.159Z,0.14
2022-12-22T06:13:54.249Z,0.14
2022-12-22T06:16:21.531Z,0.07
2022-12-22T06:18:48.675Z,-0.06
2022-12-22T06:21:15.642Z,0.18
2022-12-22T06:23:42.923Z,0.16
2022-12-22T06:26:10.148Z,0.07
2022-12-22T06:28:37.371Z,0.01
2022-12-22T06:31:04.445Z,0.18
2022-12-22T06:33:31.541Z,0.17
2022-12-22T06:35:59.569Z,0.16
2022-12-22T06:38:28.471Z,0.03
2022-12-22T06:40:55.825Z,0.01
2022-12-22T06:43:22.932Z,0.15
2022-12-22T06:45:49.883Z,0.20
2022-12-22T06:48:17.236Z,0.06
2022-12-22T06:50:44.441Z,0.05
2022-12-22T06:53:11.866Z,0.10
2022-12-22T06:55:39.093Z,0.25
2022-12-22T06:58:06.212Z,0.25
2022-12-22T07:00:34.432Z,0.22
2022-12-22T07:03:01.756Z,0.18
2022-12-22T07:05:32.132Z,0.27
2022-12-22T07:08:05.799Z,0.21
2022-12-22T07:10:53.607Z,0.20
2022-12-22T07:13:20.917Z,0.27
2022-12-22T07:15:53.794Z,0.23
2022-12-22T07:18:24.828Z,0.12
2022-12-22T07:20:52.247Z,0.30
2022-12-22T07:23:19.365Z,0.14
2022-12-22T07:25:46.412Z,0.30
2022-12-22T07:28:18.343Z,0.25
2022-12-22T07:30:47.709Z,0.27
2022-12-22T07:33:14.855Z,0.17
2022-12-22T07:35:41.869Z,0.31
2022-12-22T07:38:09.087Z,0.29
2022-12-22T07:40:41.578Z,0.13
2022-12-22T07:43:09.454Z,0.17
2022-12-22T07:45:36.733Z,0.33
2022-12-22T07:48:28.613Z,0.36
2022-12-22T07:51:01.180Z,0.24
2022-12-22T07:53:28.384Z,0.35
2022-12-22T07:55:55.559Z,0.46
2022-12-22T07:58:22.610Z,0.32
2022-12-22T08:00:49.700Z,0.46
2022-12-22T08:03:16.908Z,0.32
2022-12-22T08:05:45.724Z,0.36
2022-12-22T08:08:12.849Z,0.39
2022-12-22T08:10:39.839Z,0.46
2022-12-22T08:13:09.981Z,0.41
2022-12-22T08:15:38.261Z,0.23
2022-12-22T08:18:05.483Z,0.25
2022-12-22T08:20:33.279Z,0.29
2022-12-22T08:23:00.294Z,0.30
2022-12-22T08:25:27.319Z,0.44
2022-12-22T08:27:57.015Z,0.27
2022-12-22T08:30:24.479Z,0.43
2022-12-22T08:32:52.127Z,0.41
2022-12-22T08:35:20.007Z,0.23
2022-12-22T08:37:48.853Z,0.46
2022-12-22T08:40:28.563Z,0.43
2022-12-22T08:43:01.014Z,0.42
2022-12-22T08:45:28.161Z,0.42
2022-12-22T08:47:55.193Z,0.46
2022-12-22T08:50:23.514Z,0.35
2022-12-22T08:52:50.744Z,0.41
2022-12-22T08:55:17.742Z,0.43
2022-12-22T08:57:54.011Z,0.28
2022-12-22T09:00:23.758Z,0.33
2022-12-22T09:02:51.254Z,0.34
2022-12-22T09:05:19.277Z,0.41
2022-12-22T09:07:49.275Z,0.25
2022-12-22T09:10:16.670Z,0.47
2022-12-22T09:12:44.014Z,0.21
2022-12-22T09:15:11.493Z,0.30
2022-12-22T09:17:38.612Z,0.21
2022-12-22T09:20:06.027Z,0.43
2022-12-22T09:22:33.140Z,0.15
2022-12-22T09:25:00.440Z,0.37
2022-12-22T09:27:27.728Z,0.43
2022-12-22T09:29:55.075Z,0.34
2022-12-22T09:32:22.208Z,0.52
2022-12-22T09:34:49.804Z,0.46
2022-12-22T09:37:17.651Z,0.56
2022-12-22T09:39:46.423Z,0.58
2022-12-22T09:42:16.057Z,0.40
2022-12-22T09:44:47.305Z,0.38
2022-12-22T09:47:26.210Z,0.38
2022-12-22T09:49:56.396Z,0.45
2022-12-22T09:52:35.926Z,0.57
2022-12-22T09:55:13.045Z,0.41
2022-12-22T09:57:40.419Z,0.34
2022-12-22T10:00:15.432Z,0.53
2022-12-22T10:03:09.092Z,0.52
2022-12-22T10:06:19.914Z,0.47
2022-12-22T10:08:47.419Z,0.24
2022-12-22T10:11:18.968Z,0.35
2022-12-22T10:13:46.688Z,0.46
2022-12-22T10:16:19.643Z,0.46
2022-12-22T10:19:06.428Z,0.49
2022-12-22T10:21:42.719Z,0.23
2022-12-22T10:24:19.656Z,0.21
2022-12-22T10:26:47.002Z,0.20
2022-12-22T10:29:17.129Z,0.10
2022-12-22T10:32:01.347Z,0.43
2022-12-22T10:34:29.750Z,0.34
2022-12-22T10:37:03.391Z,0.30
2022-12-22T10:39:35.040Z,0.09
2022-12-22T10:42:13.943Z,0.30
2022-12-22T10:44:46.013Z,0.33
2022-12-22T10:47:19.764Z,0.19
2022-12-22T10:49:50.225Z,0.46
2022-12-22T10:52:21.239Z,0.28
2022-12-22T10:54:51.155Z,0.49
2022-12-22T10:57:18.194Z,0.52
2022-12-22T10:59:48.347Z,0.59
2022-12-22T11:02:21.608Z,0.61
2022-12-22T11:04:49.737Z,0.62
2022-12-22T11:07:17.181Z,0.67
2022-12-22T11:09:44.644Z,0.63
2022-12-22T11:12:50.502Z,0.43
2022-12-22T11:15:33.961Z,0.56
2022-12-22T11:18:32.152Z,0.51
2022-12-22T11:21:24.365Z,0.53
2022-12-22T11:24:08.003Z,0.39
2022-12-22T11:27:10.080Z,0.28
2022-12-22T11:29:58.944Z,0.48
2022-12-22T11:32:44.864Z,0.50
2022-12-22T11:35:26.833Z,0.29
2022-12-22T11:38:06.310Z,0.21
2022-12-22T11:40:41.629Z,0.24
2022-12-22T11:43:33.613Z,0.48
2022-12-22T11:46:38.663Z,0.60
2022-12-22T11:49:32.237Z,0.46
2022-12-22T11:52:10.531Z,0.48
2022-12-22T11:54:41.531Z,0.38
2022-12-22T11:57:55.775Z,0.21
2022-12-22T12:00:32.691Z,0.32
2022-12-22T12:03:40.448Z,0.07
2022-12-22T12:06:54.734Z,0.13
2022-12-22T12:09:44.661Z,0.31
2022-12-22T12:12:44.205Z,0.25
2022-12-22T12:15:14.685Z,0.44
2022-12-22T12:18:11.848Z,0.41
2022-12-22T12:20:46.791Z,0.41
2022-12-22T12:23:41.708Z,0.32
2022-12-22T12:26:26.157Z,0.41
2022-12-22T12:30:06.303Z,0.39
2022-12-22T12:32:41.984Z,0.35
2022-12-22T12:35:51.062Z,0.38
2022-12-22T12:38:56.712Z,0.37
2022-12-22T12:41:17.541Z,0.34
2022-12-22T12:43:46.157Z,0.05
2022-12-22T12:46:50.564Z,0.24
2022-12-22T12:49:38.711Z,0.22
2022-12-22T12:52:06.833Z,0.23
2022-12-22T12:54:33.900Z,0.27
2022-12-22T12:57:09.804Z,0.31
2022-12-22T12:59:43.002Z,0.29
2022-12-22T13:02:29.155Z,0.30
2022-12-22T13:05:04.174Z,0.33
2022-12-22T13:08:08.937Z,0.33
2022-12-22T13:10:37.883Z,0.18
2022-12-22T13:13:06.101Z,0.34
2022-12-22T13:15:42.585Z,0.39
2022-12-22T13:18:16.090Z,0.43
2022-12-22T13:20:45.176Z,0.34
2022-12-22T13:23:15.046Z,0.06
2022-12-22T13:25:56.146Z,0.21
2022-12-22T13:28:24.132Z,0.48
2022-12-22T13:30:59.664Z,0.49
2022-12-22T13:33:30.844Z,0.49
2022-12-22T13:35:59.600Z,0.23
2022-12-22T13:38:32.469Z,0.39
2022-12-22T13:41:03.111Z,0.35
2022-12-22T13:43:32.546Z,0.41
2022-12-22T13:46:03.043Z,0.47
2022-12-22T13:48:46.055Z,0.33
2022-12-22T13:51:38.010Z,0.54
2022-12-22T13:54:22.720Z,0.47
2022-12-22T13:56:57.103Z,0.16
2022-12-22T13:59:35.192Z,0.36
2022-12-22T14:02:08.199Z,0.46
2022-12-22T14:04:41.154Z,0.45
2022-12-22T14:07:20.012Z,0.52
2022-12-22T14:09:55.087Z,0.45
2022-12-22T14:12:36.387Z,0.37
2022-12-22T14:15:04.036Z,0.32
2022-12-22T14:17:33.708Z,0.24
2022-12-22T14:20:10.397Z,0.47
2022-12-22T14:22:42.961Z,0.21
2022-12-22T14:25:17.092Z,0.13
2022-12-22T14:27:53.624Z,0.27
2022-12-22T14:30:24.159Z,0.29
2022-12-22T14:32:56.039Z,0.16
2022-12-22T14:35:23.903Z,0.38
2022-12-22T14:38:07.231Z,0.39
2022-12-22T14:40:40.610Z,0.41
2022-12-22T14:43:20.780Z,0.43
2022-12-22T14:45:52.795Z,0.30
2022-12-22T14:48:31.223Z,0.58
2022-12-22T14:50:58.968Z,0.41
2022-12-22T14:53:32.824Z,0.46
2022-12-22T14:56:00.012Z,0.49
2022-12-22T14:58:38.869Z,0.52
2022-12-22T15:01:22.539Z,0.44
2022-12-22T15:04:20.323Z,0.42
2022-12-22T15:06:48.974Z,0.38
2022-12-22T15:09:16.770Z,0.34
2022-12-22T15:11:51.557Z,0.26
2022-12-22T15:14:26.746Z,0.34
2022-12-22T15:17:00.222Z,0.10
2022-12-22T15:19:31.953Z,0.19
2022-12-22T15:21:59.455Z,0.11
2022-12-22T15:24:27.373Z,0.26
2022-12-22T15:26:54.556Z,0.16
2022-12-22T15:29:21.712Z,0.14
2022-12-22T15:31:48.788Z,0.35
2022-12-22T15:34:27.942Z,0.34
2022-12-22T15:36:55.232Z,0.26
2022-12-22T15:39:22.795Z,0.34
2022-12-22T15:41:51.215Z,0.15
2022-12-22T15:44:18.585Z,0.42
2022-12-22T15:46:54.672Z,0.27
2022-12-22T15:49:25.735Z,0.18
2022-12-22T15:51:56.800Z,0.36
2022-12-22T15:54:26.914Z,0.37
2022-12-22T15:56:54.892Z,0.19
2022-12-22T15:59:28.069Z,0.38
2022-12-22T16:02:01.418Z,0.25
2022-12-22T16:04:29.715Z,0.21
2022-12-22T16:06:59.332Z,0.33
2022-12-22T16:09:38.211Z,0.26
2022-12-22T16:12:18.079Z,0.32
2022-12-22T16:14:52.060Z,0.22
2022-12-22T16:17:24.988Z,0.12
2022-12-22T16:19:52.117Z,0.23
2022-12-22T16:22:26.579Z,0.14
2022-12-22T16:24:53.895Z,0.14
2022-12-22T16:27:22.114Z,0.09
2022-12-22T16:29:53.771Z,0.18
2022-12-22T16:32:32.431Z,0.40
2022-12-22T16:35:11.783Z,0.43
2022-12-22T16:37:39.228Z,0.45
2022-12-22T16:40:08.303Z,0.36
2022-12-22T16:45:28.855Z,0.37
2022-12-22T16:47:59.857Z,0.58
2022-12-22T16:50:33.134Z,0.39
2022-12-22T16:53:02.082Z,0.46
2022-12-22T16:55:33.796Z,0.38
2022-12-22T16:58:01.018Z,0.52
2022-12-22T17:00:35.432Z,0.63
2022-12-22T17:03:21.919Z,0.58
2022-12-22T17:05:52.437Z,0.61
2022-12-22T17:08:29.389Z,0.62
2022-12-22T17:11:04.811Z,0.67
2022-12-22T17:13:37.901Z,0.58
2022-12-22T17:16:05.837Z,0.78
2022-12-22T17:18:33.518Z,0.72
2022-12-22T17:21:00.926Z,0.85
2022-12-22T17:23:39.775Z,0.98
2022-12-22T17:26:10.729Z,0.90
2022-12-22T17:28:38.863Z,0.77
2022-12-22T17:31:06.430Z,0.81
2022-12-22T17:33:33.775Z,0.55
2022-12-22T17:36:01.994Z,0.64
2022-12-22T17:38:30.146Z,0.73
2022-12-22T17:40:57.786Z,0.78
2022-12-22T17:43:24.973Z,0.65
2022-12-22T17:45:53.665Z,0.58
2022-12-22T17:48:20.824Z,0.70
2022-12-22T17:50:50.026Z,0.67
2022-12-22T17:53:21.444Z,0.52
2022-12-22T17:56:09.052Z,0.70
2022-12-22T17:58:36.679Z,0.62
2022-12-22T18:01:04.278Z,0.81
2022-12-22T18:03:31.498Z,0.76
2022-12-22T18:06:00.356Z,0.74
2022-12-22T18:08:27.682Z,0.79
2022-12-22T18:10:55.179Z,0.51
2022-12-22T18:13:25.938Z,0.64
2022-12-22T18:15:58.106Z,0.76
2022-12-22T18:18:26.947Z,0.82
2022-12-22T18:21:07.233Z,0.82
2022-12-22T18:23:37.401Z,0.72
2022-12-22T18:26:06.380Z,0.97
2022-12-22T18:28:33.566Z,0.84
2022-12-22T18:31:01.012Z,1.02
2022-12-22T18:33:28.147Z,1.02
2022-12-22T18:35:55.092Z,1.02
2022-12-22T18:38:30.708Z,0.86
2022-12-22T18:40:58.503Z,0.74
2022-12-22T18:43:26.297Z,0.80
2022-12-22T18:45:53.617Z,0.97
2022-12-22T18:48:20.692Z,0.83
2022-12-22T18:50:48.779Z,0.87
2022-12-22T18:53:29.605Z,0.95
2022-12-22T18:55:57.489Z,1.00
2022-12-22T18:58:25.903Z,0.82
2022-12-22T19:00:55.311Z,1.05
2022-12-22T19:03:25.839Z,0.85
2022-12-22T19:05:53.103Z,0.98
2022-12-22T19:08:23.154Z,0.97
2022-12-22T19:10:53.487Z,0.97
2022-12-22T19:13:33.838Z,0.79
2022-12-22T19:16:01.791Z,0.95
2022-12-22T19:18:29.187Z,0.81
2022-12-22T19:20:56.955Z,0.80
2022-12-22T19:23:26.358Z,0.87
2022-12-22T19:26:09.267Z,0.87
2022-12-22T19:28:40.396Z,0.83
2022-12-22T19:31:10.349Z,0.61
2022-12-22T19:33:41.725Z,0.63
2022-12-22T19:36:25.833Z,0.80
2022-12-22T19:39:03.345Z,0.77
2022-12-22T19:41:55.620Z,0.83
2022-12-22T19:44:26.787Z,0.86
2022-12-22T19:46:55.459Z,0.77
2022-12-22T19:49:27.604Z,0.77
2022-12-22T19:51:58.300Z,0.77
2022-12-22T19:54:25.518Z,0.61
2022-12-22T19:56:55.203Z,0.68
2022-12-22T19:59:38.549Z,0.54
2022-12-22T20:02:22.672Z,0.49
2022-12-22T20:04:50.647Z,0.78
2022-12-22T20:07:20.767Z,0.81
2022-12-22T20:09:48.400Z,0.67
2022-12-22T20:12:24.746Z,0.70
2022-12-22T20:14:53.201Z,0.48
2022-12-22T20:17:20.814Z,0.68
2022-12-22T20:19:48.515Z,0.63
2022-12-22T20:22:21.415Z,0.62
2022-12-22T20:24:50.122Z,0.63
2022-12-22T20:27:19.811Z,0.72
2022-12-22T20:29:46.955Z,0.69
2022-12-22T20:32:17.773Z,0.79
2022-12-22T20:34:46.744Z,0.71
2022-12-22T20:37:17.316Z,0.82
2022-12-22T20:39:44.677Z,0.66
2022-12-22T20:42:20.286Z,0.61
2022-12-22T20:45:02.642Z,0.52
2022-12-22T20:47:33.975Z,0.61
2022-12-22T20:50:01.222Z,0.49
2022-12-22T20:52:28.773Z,0.70
2022-12-22T20:54:55.887Z,0.60
2022-12-22T20:57:23.381Z,0.66
2022-12-22T20:59:56.152Z,0.59
2022-12-22T21:02:28.453Z,0.60
2022-12-22T21:04:56.408Z,0.42
2022-12-22T21:07:23.601Z,0.43
2022-12-22T21:09:50.750Z,0.52
2022-12-22T21:12:17.727Z,0.71
2022-12-22T21:14:44.971Z,0.48
2022-12-22T21:17:19.352Z,0.43
2022-12-22T21:19:47.063Z,0.57
2022-12-22T21:22:14.307Z,0.40
2022-12-22T21:24:41.899Z,0.25
2022-12-22T21:27:17.199Z,0.44
2022-12-22T21:29:44.709Z,0.49
2022-12-22T21:32:15.962Z,0.59
2022-12-22T21:34:43.068Z,0.62
2022-12-22T21:37:15.230Z,0.65
2022-12-22T21:39:45.009Z,0.66
2022-12-22T21:42:16.792Z,0.69
2022-12-22T21:44:47.252Z,0.61
2022-12-22T21:47:17.368Z,0.47
2022-12-22T21:49:44.386Z,0.51
2022-12-22T21:52:11.287Z,0.66
2022-12-22T21:54:38.422Z,0.61
2022-12-22T21:57:06.154Z,0.58
2022-12-22T21:59:52.027Z,0.55
2022-12-22T22:02:19.281Z,0.60
2022-12-22T22:04:52.051Z,0.49
2022-12-22T22:07:21.404Z,0.40
2022-12-22T22:09:48.409Z,0.42
2022-12-22T22:12:33.448Z,0.46
2022-12-22T22:15:02.107Z,0.44
2022-12-22T22:17:31.094Z,0.25
2022-12-22T22:19:57.961Z,0.44
2022-12-22T22:22:24.939Z,0.25
2022-12-22T22:24:52.212Z,0.46
2022-12-22T22:27:19.353Z,0.33
2022-12-22T22:29:46.287Z,0.51
2022-12-22T22:32:13.314Z,0.48
2022-12-22T22:34:40.279Z,0.44
2022-12-22T22:37:07.401Z,0.37
2022-12-22T22:39:34.649Z,0.40
2022-12-22T22:42:01.647Z,0.51
2022-12-22T22:44:28.690Z,0.37
2022-12-22T22:46:55.690Z,0.52
2022-12-22T22:49:28.383Z,0.42
2022-12-22T22:51:56.348Z,0.44
2022-12-22T22:54:23.453Z,0.50
2022-12-22T22:56:50.594Z,0.57
2022-12-22T22:59:18.692Z,0.72
2022-12-22T23:01:45.696Z,0.76
2022-12-22T23:04:13.087Z,0.58
2022-12-22T23:06:41.873Z,0.78
2022-12-22T23:09:09.677Z,0.75
2022-12-22T23:11:36.725Z,0.67
2022-12-22T23:14:03.925Z,0.67
2022-12-22T23:16:37.744Z,0.69
2022-12-22T23:19:05.774Z,0.81
2022-12-22T23:21:32.885Z,0.81
2022-12-22T23:23:59.801Z,0.89
2022-12-22T23:26:26.899Z,0.74
2022-12-22T23:28:59.300Z,0.88
2022-12-22T23:31:30.523Z,0.82
2022-12-22T23:33:57.630Z,0.87
2022-12-22T23:36:24.940Z,0.84
2022-12-22T23:38:52.210Z,0.72
2022-12-22T23:41:19.707Z,0.87
2022-12-22T23:43:46.954Z,0.82
2022-12-22T23:46:16.986Z,0.91
2022-12-22T23:48:44.629Z,0.90
2022-12-22T23:51:12.152Z,0.90
2022-12-22T23:53:39.321Z,0.72
2022-12-22T23:56:06.667Z,0.65
2022-12-22T23:58:33.665Z,0.86
